Tiempo atmosférico en la estación meteorológica de Atzeneta Del Maestrat, Castelló/Castellón (420 m.)



Fecha
DESCASC
Temp. máxima en grados centígrados (hora)
DESCASC
Temp. mínima en grados centígrados (hora)
DESCASC
Temp. media en grados centígrados
DESCASC
Racha de viento máxima en m/sg (hora)
DESCASC
Velocidad máxima media en intervalos de 10 minutos(hora)
DESCASC
Precipitaciones diarias en mm
DESCASC
Precipitaciones de 00:00 a 06:00 en mm
DESCASC
Precipitaciones de 06:00 a 12:00 en mm
DESCASC
Precipitaciones de 12:00 a 18:00 en mm
DESCASC
Precipitaciones de 18:00 a 24:00 en mm
DESCASC
17-09-2020 30.1 (13:50) 15.5 (05:20) 22.8 8.61 (14:30) 5 (15:10) 0 0 0 0 0
16-09-2020 33.1 (14:40) 14.8 (07:40) 23.9 6.67 (15:10) 3.89 (15:10) 0 0 0 0 0
15-09-2020 31.7 (15:50) 16.7 (08:10) 24.2 8.33 (13:50) 4.72 (14:30) 0.2 0.2 0 0 0
14-09-2020 30.9 (14:30) 13.4 (00:00) 22.1 8.33 (15:50) 4.72 (15:50) 0 0 0 0 0
13-09-2020 33.1 (15:10) 13.8 (00:00) 23.4 7.5 (15:20) 4.72 (15:40) 0 0 0 0 0
12-09-2020 32.3 (14:50) 12.9 (00:00) 22.6 8.06 (15:30) 5 (15:40) 0 0 0 0 0
11-09-2020 30.9 (13:50) 12.4 (00:00) 21.6 8.33 (15:00) 4.44 (15:00) 0 0 0 0 0
10-09-2020 29.9 (15:50) 14.5 (00:00) 22.2 7.5 (17:00) 5 (17:00) 0.6 0.6 0 0 0
09-09-2020 27.5 (14:10) 12.3 (00:00) 19.9 13.89 (17:00) 6.39 (17:00) 27.6 0 0 27.6 0
08-09-2020 27.2 (14:50) 9.9 (00:00) 18.6 8.89 (15:10) 5 (15:10) 0 0 0 0 0
07-09-2020 26.7 (13:40) 16.6 (04:10) 21.7 11.39 (14:10) 6.67 (14:10) 0 0 0 0 0
06-09-2020 32.1 (14:20) 14 (00:00) 23 9.72 (13:40) 5.83 (15:30) 0.2 0 0 0 0.2
05-09-2020 32.1 (15:20) 12 (00:00) 22 8.06 (16:50) 4.44 (17:40) 0 0 0 0 0
04-09-2020 31.2 (14:30) 12 (00:00) 21.6 9.17 (16:30) 5 (15:50) 0 0 0 0 0
03-09-2020 31.2 (14:10) 12 (00:00) 21.6 9.17 (16:40) 5.28 (15:50) 0 0 0 0 0
02-09-2020 29.2 (14:20) 10.3 (00:00) 19.8 8.89 (14:50) 5.56 (14:50) 0 0 0 0 0
01-09-2020 28.2 (15:40) 11 (00:00) 19.6 7.5 (15:00) 3.89 (17:50) 0.8 0 0 0 0.8
31-08-2020 29 (16:20) 12.7 (00:00) 20.8 8.61 (14:10) 5.56 (14:10) 0 0 0 0 0
30-08-2020 25.2 (16:00) 14.2 (00:00) 19.7 11.67 (02:00) 6.11 (13:00) 0 0 0 0 0
29-08-2020 23.5 (16:20) 16.7 (00:00) 20.1 8.89 (06:00) 5.28 (13:20) 1.4 0 0 1.4 0
28-08-2020 34.9 (14:40) 20.8 (00:00) 27.9 14.44 (17:50) 5.56 (15:50) 1.6 0 0 0.8 0.8
27-08-2020 33.8 (13:20) 17.6 (00:00) 25.7 8.06 (17:00) 4.72 (17:10) 0 0 0 0 0
26-08-2020 35.2 (14:20) 16.6 (00:00) 25.9 8.33 (15:10) 5 (15:00) 0 0 0 0 0
25-08-2020 35.1 (14:00) 19.2 (00:00) 27.1 11.94 (17:20) 4.17 (13:20) 0 0 0 0 0
24-08-2020 33.2 (15:50) 15.8 (00:00) 24.5 9.17 (13:40) 5.56 (14:50) 0 0 0 0 0
23-08-2020 30.4 (14:50) 19 (00:00) 24.7 6.94 (15:00) 3.89 (16:30) 0 0 0 0 0
22-08-2020 34.3 (13:50) 16.6 (00:00) 25.4 8.33 (14:50) 5 (16:10) 0 0 0 0 0
21-08-2020 36.5 (15:30) 16.8 (00:00) 26.6 7.78 (17:10) 4.44 (17:50) 0 0 0 0 0
20-08-2020 36.2 (15:40) 14.7 (00:00) 25.5 8.06 (15:50) 4.72 (13:10) 0 0 0 0 0
19-08-2020 36.4 (15:30) 15.8 (00:00) 26.1 10.56 (14:00) 6.67 (14:00) 0 0 0 0 0

Gráficas

Temp. máximas Temp. mínimas Temp. medias Precipitaciones Rachas de viento máximas Velocidades máximas media en intervalos de 10 minutos

Datos horarios

Fecha y hora oficial Temperatura (ºC) Velocidad del viento (km/h) Dirección del viento Racha (km/h) Dirección de racha Precipitación (mm) Presión (hPa) Tendencia (hPa) Humedad (%)
2020-09-17 23:00:00 19.1 2 Norte 5 Sudeste 0 -- -- 77
2020-09-17 22:00:00 19.7 2 Nordeste 4 Noroeste 0 -- -- 73
2020-09-17 21:00:00 21.5 2 Oeste 9 Sur 0 -- -- 67
2020-09-17 20:00:00 23.7 6 Sur 17 Sudeste 0 -- -- 60
2020-09-17 19:00:00 25.8 11 Sudeste 21 Sur 0 -- -- 49
2020-09-17 18:00:00 26.8 11 Sur 28 Sur 0 -- -- 47
2020-09-17 17:00:00 29.2 17 Sur 29 Sur 0 -- -- 43
2020-09-17 16:00:00 29.1 14 Sur 25 Sudeste 0 -- -- 46
2020-09-17 15:00:00 29.1 18 Sudeste 31 Sudeste 0 -- -- 42
2020-09-17 14:00:00 29.6 16 Sudeste 23 Sudeste 0 -- -- 35
2020-09-17 13:00:00 29.4 9 Sudeste 18 Sudeste 0 -- -- 38
2020-09-17 12:00:00 25 0 Calma 7 Este 0 -- -- 53
2020-09-17 11:00:00 21.3 4 Sur 6 Sudeste 0 -- -- 66
2020-09-17 10:00:00 18.1 0 Calma 8 Sudeste 0 -- -- 82
2020-09-17 09:00:00 17.4 3 Oeste 7 Noroeste 0 -- -- 85
2020-09-17 08:00:00 16.7 4 Sudoeste 6 Sur 0 -- -- 85
2020-09-17 07:00:00 16.6 3 Noroeste 8 Noroeste 0 -- -- 80
2020-09-17 06:00:00 15.7 0 Calma 6 Sudoeste 0 -- -- 87
2020-09-17 05:00:00 15.6 0 Calma 2 Este 0 -- -- 85
2020-09-17 04:00:00 16 0 Calma 5 Noroeste 0 -- -- 85
2020-09-17 03:00:00 16.4 4 Noroeste 7 Noroeste 0 -- -- 81
2020-09-17 02:00:00 16.7 0 Calma 3 Sudoeste 0 -- -- 82
2020-09-17 01:00:00 17.5 2 Noroeste 4 Noroeste 0 -- -- 80
2020-09-17 00:00:00 18.5 0 Calma 4 Noroeste 0 -- -- 78
2020-09-16 23:00:00 19.7 0 Calma 6 Noroeste 0 -- -- 74
2020-09-16 22:00:00 20.9 4 Noroeste 6 Noroeste 0 -- -- 68
2020-09-16 21:00:00 22.8 0 Calma 10 Sudoeste 0 -- -- 66
2020-09-16 20:00:00 24.8 7 Sudoeste 16 Sudeste 0 -- -- 58
2020-09-16 19:00:00 27.5 8 Sudeste 19 Sur 0 -- -- 52
2020-09-16 18:00:00 30.5 14 Sur 22 Sur 0 -- -- 43
2020-09-16 17:00:00 31.6 14 Sudeste 23 Sudeste 0 -- -- 38
2020-09-16 16:00:00 30.9 13 Sur 24 Sudeste 0 -- -- 41
2020-09-16 15:00:00 32.5 13 Sudeste 21 Sudeste 0 -- -- 42
2020-09-16 14:00:00 32.2 10 Sur 21 Sudeste 0 -- -- 39
2020-09-16 13:00:00 30.7 10 Sudeste 19 Sudeste 0 -- -- 39
2020-09-16 12:00:00 28 5 Este 12 Este 0 -- -- 47
2020-09-16 11:00:00 25.3 0 Calma 5 Sudeste 0 -- -- 53
2020-09-16 10:00:00 21.7 3 Sudeste 4 Sudeste 0 -- -- 62
2020-09-16 09:00:00 17 0 Calma 3 Oeste 0 -- -- 81
2020-09-16 08:00:00 14.8 0 Calma 2 Este 0 -- -- 87
2020-09-16 07:00:00 15.2 0 Calma 3 Sur 0 -- -- 88
2020-09-16 06:00:00 15.4 0 Calma 4 Noroeste 0 -- -- 86
2020-09-16 05:00:00 16 0 Calma 4 Noroeste 0 -- -- 86
2020-09-16 04:00:00 16.5 0 Calma 5 Este 0 -- -- 85
2020-09-16 03:00:00 17.1 2 Noroeste 5 Noroeste 0 -- -- 81
2020-09-16 02:00:00 17.8 0 Calma 4 Sudoeste 0 -- -- 83
2020-09-16 01:00:00 18.9 0 Calma 3 Sur 0 -- -- 80
2020-09-16 00:00:00 19.5 2 Oeste 6 Noroeste 0 -- -- 76
2020-09-15 23:00:00 20.3 0 Calma 5 Noroeste 0 -- -- 74
2020-09-15 22:00:00 21.7 0 Calma 7 Nordeste 0 -- -- 70
2020-09-15 21:00:00 23.7 5 Este 15 Noroeste 0 -- -- 62
2020-09-15 20:00:00 26 8 Norte 19 Sur 0 -- -- 53
2020-09-15 19:00:00 27.8 14 Sur 24 Sur 0 -- -- 54
2020-09-15 18:00:00 29.3 15 Sur 25 Sudeste 0 -- -- 49
2020-09-15 17:00:00 31.5 12 Sudeste 23 Sudeste 0 -- -- 43
2020-09-15 16:00:00 31.7 14 Sudeste 26 Sudeste 0 -- -- 44
2020-09-15 15:00:00 28.9 14 Sur 25 Sur 0 -- -- 48
2020-09-15 14:00:00 31.6 15 Sudeste 30 Sur 0 -- -- 40
2020-09-15 13:00:00 30.8 13 Sur 22 Sudeste 0 -- -- 42
2020-09-15 12:00:00 27.7 10 Sur 17 Sudeste 0 -- -- 51
2020-09-15 11:00:00 25.5 4 Este 6 Este 0 -- -- 52
2020-09-15 10:00:00 21.9 0 Calma 6 Sur 0 -- -- 64
2020-09-15 09:00:00 18.9 4 Sur 8 Norte 0 -- -- 80
2020-09-15 08:00:00 16.8 3 Norte 8 Sudoeste 0 -- -- 87
2020-09-15 07:00:00 17.3 4 Sudoeste 10 Norte 0 -- -- 85
2020-09-15 06:00:00 18.4 5 Norte 12 Sur 0 -- -- 79
2020-09-15 05:00:00 17.9 9 Sudoeste 26 Sudoeste 0.2 -- -- 82
2020-09-15 04:00:00 17.9 4 Nordeste 9 Sur 0 -- -- 84
2020-09-15 03:00:00 17.6 2 Sudoeste 5 Sur 0 -- -- 83
2020-09-15 02:00:00 17.4 4 Noroeste 5 Noroeste 0 -- -- 77
2020-09-15 01:00:00 17.1 2 Noroeste 7 Sudoeste 0 -- -- 85
2020-09-15 00:00:00 17.9 5 Sur 8 Noroeste 0 -- -- 82
2020-09-14 23:00:00 19.3 6 Noroeste 9 Noroeste 0 -- -- 76
2020-09-14 22:00:00 20.6 0 Calma 5 Sudoeste 0 -- -- 74
2020-09-14 21:00:00 22.3 3 Sudoeste 9 Sur 0 -- -- 69
2020-09-14 20:00:00 24.6 7 Sur 15 Sur 0 -- -- 62
2020-09-14 19:00:00 27.5 10 Sur 21 Sur 0 -- -- 53
2020-09-14 18:00:00 29.8 8 Sur 23 Sudeste 0 -- -- 43
2020-09-14 17:00:00 28.9 12 Sudeste 23 Sudeste 0 -- -- 50
2020-09-14 16:00:00 29.3 14 Sudeste 30 Este 0 -- -- 42
2020-09-14 15:00:00 30.3 12 Este 26 Este 0 -- -- 44
2020-09-14 14:00:00 30.5 10 Sudeste 19 Este 0 -- -- 39
2020-09-14 13:00:00 28.7 5 Sudeste 17 Sudeste 0 -- -- 37
2020-09-14 12:00:00 28.4 9 Este 15 Sudeste 0 -- -- 39
2020-09-14 11:00:00 25.6 0 Calma 6 Este 0 -- -- 45
2020-09-14 10:00:00 21.6 3 Sur 6 Sudoeste 0 -- -- 56
2020-09-14 09:00:00 17.1 0 Calma 3 Nordeste 0 -- -- 73
2020-09-14 08:00:00 13.5 0 Calma 4 Noroeste 0 -- -- 86
2020-09-14 07:00:00 13.7 0 Calma 2 Nordeste 0 -- -- 86
2020-09-14 06:00:00 14.1 0 Calma 4 Sudeste 0 -- -- 84
2020-09-14 05:00:00 14.4 0 Calma 2 Sudoeste 0 -- -- 82
2020-09-14 04:00:00 14.8 0 Calma 4 Este 0 -- -- 83
2020-09-14 03:00:00 15.3 0 Calma 3 Oeste 0 -- -- 79
2020-09-14 02:00:00 16.1 0 Calma 3 Norte 0 -- -- 78
2020-09-14 01:00:00 16.7 0 Calma 4 Sudoeste 0 -- -- 76
2020-09-14 00:00:00 17.7 0 Calma 5 Noroeste 0 -- -- 72
2020-09-13 23:00:00 18.8 2 Sudoeste 9 Noroeste 0 -- -- 69
2020-09-13 22:00:00 20.4 0 Calma 5 Este 0 -- -- 65
2020-09-13 21:00:00 22.6 0 Calma 8 Sudoeste 0 -- -- 58
2020-09-13 20:00:00 25.3 6 Sur 20 Sur 0 -- -- 46
2020-09-13 19:00:00 28.9 14 Sur 21 Sur 0 -- -- 38
2020-09-13 18:00:00 30.8 13 Sur 24 Sudeste 0 -- -- 35
2020-09-13 17:00:00 32.1 14 Sur 24 Sur 0 -- -- 35
2020-09-13 16:00:00 32.6 14 Sur 27 Sudeste 0 -- -- 36
2020-09-13 15:00:00 33 16 Sur 26 Sudeste 0 -- -- 35
2020-09-13 14:00:00 32.1 12 Sudeste 24 Sur 0 -- -- 37
2020-09-13 13:00:00 31.7 12 Sudeste 21 Sudeste 0 -- -- 33
2020-09-13 12:00:00 29.4 7 Este 14 Sudeste 0 -- -- 40
2020-09-13 11:00:00 25.8 0 Calma 6 Sur 0 -- -- 45
2020-09-13 10:00:00 22 3 Sudeste 5 Sur 0 -- -- 55
2020-09-13 09:00:00 17.7 0 Calma 2 Sudoeste 0 -- -- 75
2020-09-13 08:00:00 13.8 0 Calma 2 Norte 0 -- -- 84
2020-09-13 07:00:00 14.1 0 Calma 3 Noroeste 0 -- -- 84
2020-09-13 06:00:00 14.4 0 Calma 4 Noroeste 0 -- -- 87
2020-09-13 05:00:00 14.9 0 Calma 3 Sudeste 0 -- -- 83
2020-09-13 04:00:00 15.2 3 Norte 5 Noroeste 0 -- -- 83
2020-09-13 03:00:00 15.8 0 Calma 3 Oeste 0 -- -- 83
2020-09-13 02:00:00 16.4 0 Calma 4 Noroeste 0 -- -- 81
2020-09-13 01:00:00 17.1 0 Calma 5 Noroeste 0 -- -- 81
2020-09-13 00:00:00 18.4 3 Norte 6 Noroeste 0 -- -- 74
2020-09-12 23:00:00 19.5 3 Sudoeste 8 Noroeste 0 -- -- 71
2020-09-12 22:00:00 20.7 0 Calma 3 Noroeste 0 -- -- 69
2020-09-12 21:00:00 22 3 Sur 6 Sudoeste 0 -- -- 66
2020-09-12 20:00:00 24.9 4 Sur 17 Sur 0 -- -- 58
2020-09-12 19:00:00 27 10 Sur 22 Sudoeste 0 -- -- 51
2020-09-12 18:00:00 28.5 15 Sur 26 Sudeste 0 -- -- 45
2020-09-12 17:00:00 30.9 15 Sudeste 28 Sudeste 0 -- -- 41
2020-09-12 16:00:00 31.4 17 Sudeste 29 Sudeste 0 -- -- 38
2020-09-12 15:00:00 32.2 15 Sudeste 27 Sudeste 0 -- -- 36
2020-09-12 14:00:00 32 14 Sudeste 25 Sudeste 0 -- -- 32
2020-09-12 13:00:00 30.8 14 Sudeste 21 Sudeste 0 -- -- 33
2020-09-12 12:00:00 28.7 6 Sudeste 12 Sudeste 0 -- -- 38
2020-09-12 11:00:00 24.7 0 Calma 6 Sudeste 0 -- -- 46
2020-09-12 10:00:00 20.7 2 Sudeste 5 Sur 0 -- -- 61
2020-09-12 09:00:00 15.9 0 Calma 3 Noroeste 0 -- -- 85
2020-09-12 08:00:00 13.1 0 Calma 2 Norte 0 -- -- 89
2020-09-12 07:00:00 13.1 0 Calma 2 Sur 0 -- -- 91
2020-09-12 06:00:00 13.5 0 Calma 3 Oeste 0 -- -- 89
2020-09-12 05:00:00 14 0 Calma 3 Sudoeste 0 -- -- 88
2020-09-12 04:00:00 14.5 0 Calma 4 Oeste 0 -- -- 87
2020-09-12 03:00:00 15 3 Norte 4 Noroeste 0 -- -- 84
2020-09-12 02:00:00 15.7 2 Noroeste 5 Este 0 -- -- 84
2020-09-12 01:00:00 16.4 0 Calma 5 Sudeste 0 -- -- 82
2020-09-12 00:00:00 17.4 5 Oeste 7 Noroeste 0 -- -- 78
2020-09-11 23:00:00 18.6 2 Noroeste 6 Noroeste 0 -- -- 71
2020-09-11 22:00:00 20.2 0 Calma 8 Noroeste 0 -- -- 67
2020-09-11 21:00:00 22.3 2 Norte 7 Sudeste 0 -- -- 59
2020-09-11 20:00:00 25.7 4 Sudeste 17 Este 0 -- -- 52
2020-09-11 19:00:00 27.7 11 Este 21 Este 0 -- -- 39
2020-09-11 18:00:00 29.1 13 Este 25 Sudeste 0 -- -- 36
2020-09-11 17:00:00 29.9 13 Este 24 Este 0 -- -- 36
2020-09-11 16:00:00 30.3 13 Este 28 Sudeste 0 -- -- 33
2020-09-11 15:00:00 30.1 16 Este 30 Este 0 -- -- 36
2020-09-11 14:00:00 30.8 11 Este 21 Este 0 -- -- 32
2020-09-11 13:00:00 30.2 8 Este 23 Sudeste 0 -- -- 31
2020-09-11 12:00:00 29.4 10 Sudeste 22 Este 0 -- -- 35
2020-09-11 11:00:00 26.1 3 Sudeste 9 Este 0 -- -- 40
2020-09-11 10:00:00 21.4 4 Sudoeste 8 Sur 0 -- -- 58
2020-09-11 09:00:00 16.2 2 Sudoeste 6 Este 0 -- -- 80
2020-09-11 08:00:00 12.5 3 Oeste 5 Sudoeste 0 -- -- 93
2020-09-11 07:00:00 12.6 0 Calma 5 Sudoeste 0 -- -- 94
2020-09-11 06:00:00 13 0 Calma 5 Oeste 0 -- -- 93
2020-09-11 05:00:00 13.6 0 Calma 8 Noroeste 0 -- -- 93
2020-09-11 04:00:00 14.2 0 Calma 5 Oeste 0 -- -- 92
2020-09-11 03:00:00 15 2 Noroeste 6 Noroeste 0 -- -- 90
2020-09-11 02:00:00 15.9 0 Calma 8 Noroeste 0 -- -- 89
2020-09-11 01:00:00 16.5 2 Sudeste 10 Noroeste 0 -- -- 89
2020-09-11 00:00:00 17.6 2 Este 8 Oeste 0 -- -- 86
2020-09-10 23:00:00 18.4 0 Calma 9 Norte 0 -- -- 80
2020-09-10 22:00:00 19.1 4 Oeste 9 Noroeste 0 -- -- 77
2020-09-10 21:00:00 20.8 3 Oeste 9 Sur 0 -- -- 74
2020-09-10 20:00:00 23.3 6 Sur 14 Sudeste 0 -- -- 61
2020-09-10 19:00:00 26 11 Sur 18 Sur 0 -- -- 54
2020-09-10 18:00:00 27.7 10 Sur 25 Sur 0 -- -- 50
2020-09-10 17:00:00 28.1 18 Sudeste 27 Sudeste 0 -- -- 50
2020-09-10 16:00:00 29.4 13 Sur 23 Sur 0 -- -- 46
2020-09-10 15:00:00 29.6 12 Sur 17 Sudoeste 0 -- -- 44
2020-09-10 14:00:00 26.9 8 Sudeste 16 Sudeste 0 -- -- 49
2020-09-10 13:00:00 25.3 6 Nordeste 15 Sur 0 -- -- 53
2020-09-10 12:00:00 25 6 Este 15 Sudeste 0 -- -- 56
2020-09-10 11:00:00 22.8 4 Sudeste 8 Sur 0 -- -- 63
2020-09-10 10:00:00 20.1 4 Sudeste 8 Sudeste 0 -- -- 80
2020-09-10 09:00:00 16.5 2 Sudeste 4 Sudeste 0 -- -- 91
2020-09-10 08:00:00 14.5 2 Este 6 Sudoeste 0 -- -- 96
2020-09-10 07:00:00 14.8 3 Sudoeste 8 Noroeste 0 -- -- 95
2020-09-10 06:00:00 15.7 5 Noroeste 7 Noroeste 0 -- -- 95
2020-09-10 05:00:00 16.4 3 Sudoeste 6 Sur 0 -- -- 96
2020-09-10 04:00:00 16.7 4 Noroeste 6 Noroeste 0 -- -- 96
2020-09-10 03:00:00 17 2 Sudoeste 5 Norte 0 -- -- 96
2020-09-10 02:00:00 17 0 Calma 4 Este 0.4 -- -- 95
2020-09-10 01:00:00 17.1 0 Calma 4 Sudeste 0.2 -- -- 94
2020-09-10 00:00:00 17.2 0 Calma 4 Norte 0 -- -- 94
2020-09-09 23:00:00 17.5 3 Sudoeste 4 Nordeste 0 -- -- 92
2020-09-09 22:00:00 17.9 3 Sur 6 Sur 0 -- -- 93
2020-09-09 21:00:00 18.2 3 Sudoeste 6 Este 0 -- -- 91
2020-09-09 20:00:00 18.6 2 Nordeste 10 Sudeste 0 -- -- 85
2020-09-09 19:00:00 19.8 7 Sur 13 Sudoeste 0 -- -- 83
2020-09-09 18:00:00 18.9 9 Sudoeste 23 Este 0.8 -- -- 89
2020-09-09 17:00:00 16.7 23 Sudeste 50 Sudeste 26.8 -- -- 90
2020-09-09 16:00:00 26.1 12 Sudeste 21 Sudeste 0 -- -- 56
2020-09-09 15:00:00 24.3 14 Este 29 Este 0 -- -- 59
2020-09-09 14:00:00 27.3 10 Sudeste 20 Este 0 -- -- 45
2020-09-09 13:00:00 24.6 4 Norte 19 Norte 0 -- -- 47
2020-09-09 12:00:00 24.7 10 Nordeste 26 Nordeste 0 -- -- 49
2020-09-09 11:00:00 24 6 Nordeste 15 Este 0 -- -- 51
2020-09-09 10:00:00 20.5 4 Sudeste 6 Sudoeste 0 -- -- 57
2020-09-09 09:00:00 15.5 3 Sur 7 Sudeste 0 -- -- 72
2020-09-09 08:00:00 12.8 0 Calma 4 Sudoeste 0 -- -- 77
2020-09-09 07:00:00 12.5 0 Calma 4 Noroeste 0 -- -- 80
2020-09-09 06:00:00 12.5 0 Calma 6 Noroeste 0 -- -- 77
2020-09-09 05:00:00 13 5 Oeste 6 Oeste 0 -- -- 76
2020-09-09 04:00:00 14.1 0 Calma 9 Noroeste 0 -- -- 72
2020-09-09 03:00:00 15 3 Sudoeste 6 Noroeste 0 -- -- 69
2020-09-09 02:00:00 16.3 4 Oeste 8 Noroeste 0 -- -- 66
2020-09-09 01:00:00 17.3 0 Calma 4 Norte 0 -- -- 62
2020-09-09 00:00:00 17.2 0 Calma 6 Sudoeste 0 -- -- 62
2020-09-08 23:00:00 17.8 3 Sudoeste 7 Noroeste 0 -- -- 57
2020-09-08 22:00:00 18.9 4 Noroeste 9 Noroeste 0 -- -- 54
2020-09-08 21:00:00 19.9 5 Noroeste 8 Noroeste 0 -- -- 51
2020-09-08 20:00:00 22.4 0 Calma 10 Sudeste 0 -- -- 45
2020-09-08 19:00:00 22.6 3 Este 18 Sudeste 0 -- -- 43
2020-09-08 18:00:00 22.5 9 Sudeste 23 Sudeste 0 -- -- 46
2020-09-08 17:00:00 23.4 12 Este 27 Este 0 -- -- 43
2020-09-08 16:00:00 25.7 10 Este 32 Sudeste 0 -- -- 38
2020-09-08 15:00:00 26.5 16 Este 31 Este 0 -- -- 34
2020-09-08 14:00:00 26.2 10 Nordeste 22 Nordeste 0 -- -- 32
2020-09-08 13:00:00 25.7 10 Este 27 Sudeste 0 -- -- 34
2020-09-08 12:00:00 24.8 4 Norte 15 Sudeste 0 -- -- 35
2020-09-08 11:00:00 22.7 3 Este 7 Este 0 -- -- 39
2020-09-08 10:00:00 19 3 Sudeste 6 Sudeste 0 -- -- 47
2020-09-08 09:00:00 14.2 4 Sudoeste 9 Este 0 -- -- 66
2020-09-08 08:00:00 9.9 0 Calma 8 Sur 0 -- -- 80
2020-09-08 07:00:00 10.1 5 Sudoeste 9 Sudeste 0 -- -- 80
2020-09-08 06:00:00 11 0 Calma 5 Oeste 0 -- -- 79
2020-09-08 05:00:00 12.8 4 Norte 11 Oeste 0 -- -- 72
2020-09-08 04:00:00 14.6 8 Noroeste 23 Norte 0 -- -- 73
2020-09-08 03:00:00 13.6 3 Sudeste 5 Sudeste 0 -- -- 83
2020-09-08 02:00:00 14.6 0 Calma 5 Este 0 -- -- 85
2020-09-08 01:00:00 16 4 Noroeste 6 Noroeste 0 -- -- 83
2020-09-08 00:00:00 17.3 0 Calma 4 Sudeste 0 -- -- 79
2020-09-07 23:00:00 18.5 4 Nordeste 6 Nordeste 0 -- -- 78
2020-09-07 22:00:00 19.1 0 Calma 15 Este 0 -- -- 76
2020-09-07 21:00:00 19.5 9 Este 17 Sudeste 0 -- -- 74
2020-09-07 20:00:00 20.1 10 Sudeste 21 Sudeste 0 -- -- 67
2020-09-07 19:00:00 21.4 11 Sudeste 22 Sudeste 0 -- -- 61
2020-09-07 18:00:00 21.8 13 Este 27 Sudeste 0 -- -- 59
2020-09-07 17:00:00 24.3 15 Sudeste 36 Sudeste 0 -- -- 51
2020-09-07 16:00:00 25.6 15 Sudeste 34 Sudeste 0 -- -- 43
2020-09-07 15:00:00 25.7 21 Sudeste 41 Sudeste 0 -- -- 41
2020-09-07 14:00:00 26.2 19 Este 31 Este 0 -- -- 32
2020-09-07 13:00:00 24.7 13 Nordeste 28 Este 0 -- -- 33
2020-09-07 12:00:00 23.3 10 Nordeste 22 Noroeste 0 -- -- 35
2020-09-07 11:00:00 20.9 4 Nordeste 14 Nordeste 0 -- -- 40
2020-09-07 10:00:00 18.9 11 Este 37 Noroeste 0 -- -- 44
2020-09-07 09:00:00 18.2 21 Noroeste 37 Noroeste 0 -- -- 49
2020-09-07 08:00:00 17.2 18 Noroeste 39 Noroeste 0 -- -- 58
2020-09-07 07:00:00 17.1 8 Nordeste 22 Nordeste 0 -- -- 61
2020-09-07 06:00:00 17.2 10 Nordeste 20 Norte 0 -- -- 62
2020-09-07 05:00:00 17 6 Norte 14 Noroeste 0 -- -- 68
2020-09-07 04:00:00 16.8 2 Norte 10 Norte 0 -- -- 73
2020-09-07 03:00:00 17.8 3 Nordeste 8 Nordeste 0 -- -- 72
2020-09-07 02:00:00 18.7 3 Nordeste 11 Noroeste 0 -- -- 73
2020-09-07 01:00:00 18.9 3 Nordeste 6 Oeste 0 -- -- 81
2020-09-07 00:00:00 18.9 2 Noroeste 8 Oeste 0 -- -- 86
2020-09-06 23:00:00 19.8 0 Calma 5 Norte 0 -- -- 89
2020-09-06 22:00:00 20.7 4 Nordeste 10 Norte 0.2 -- -- 87
2020-09-06 21:00:00 21.5 3 Nordeste 10 Norte 0 -- -- 79
2020-09-06 20:00:00 24 3 Sudeste 17 Sudeste 0 -- -- 66
2020-09-06 19:00:00 26.1 12 Sur 26 Sur 0 -- -- 51
2020-09-06 18:00:00 28 14 Sur 28 Sudeste 0 -- -- 44
2020-09-06 17:00:00 30.3 16 Sudeste 29 Sur 0 -- -- 40
2020-09-06 16:00:00 31.6 18 Sur 31 Sudeste 0 -- -- 38
2020-09-06 15:00:00 31.9 20 Sur 32 Sur 0 -- -- 40
2020-09-06 14:00:00 31.4 18 Sur 35 Sudeste 0 -- -- 40
2020-09-06 13:00:00 30.8 18 Sudeste 29 Sudeste 0 -- -- 40
2020-09-06 12:00:00 29.3 12 Sudeste 20 Sudeste 0 -- -- 43
2020-09-06 11:00:00 26.6 4 Sur 11 Sudeste 0 -- -- 47
2020-09-06 10:00:00 22.6 0 Calma 6 Sudeste 0 -- -- 58
2020-09-06 09:00:00 18.2 0 Calma 4 Sudeste 0 -- -- 74
2020-09-06 08:00:00 14 0 Calma 3 Sudoeste 0 -- -- 90
2020-09-06 07:00:00 14.4 0 Calma 3 Sudoeste 0 -- -- 89
2020-09-06 06:00:00 15 0 Calma 3 Noroeste 0 -- -- 89
2020-09-06 05:00:00 15.5 0 Calma 5 Oeste 0 -- -- 90
2020-09-06 04:00:00 15.8 3 Sudoeste 5 Oeste 0 -- -- 89
2020-09-06 03:00:00 16.4 3 Noroeste 5 Noroeste 0 -- -- 87
2020-09-06 02:00:00 16.9 0 Calma 4 Noroeste 0 -- -- 85
2020-09-06 01:00:00 17.9 3 Noroeste 6 Oeste 0 -- -- 83
2020-09-06 00:00:00 18.9 5 Noroeste 7 Oeste 0 -- -- 80
2020-09-05 23:00:00 20 3 Noroeste 8 Noroeste 0 -- -- 77
2020-09-05 22:00:00 21.2 3 Oeste 10 Sudeste 0 -- -- 74
2020-09-05 21:00:00 22.6 6 Sur 13 Sudeste 0 -- -- 70
2020-09-05 20:00:00 25 9 Sudeste 19 Sur 0 -- -- 62
2020-09-05 19:00:00 27.9 12 Sudeste 25 Sudeste 0 -- -- 53
2020-09-05 18:00:00 29.8 14 Sudeste 26 Sudeste 0 -- -- 47
2020-09-05 17:00:00 30.9 13 Sudeste 29 Sudeste 0 -- -- 43
2020-09-05 16:00:00 31.9 15 Sudeste 24 Sudeste 0 -- -- 40
2020-09-05 15:00:00 31.3 9 Sudeste 26 Sudeste 0 -- -- 40
2020-09-05 14:00:00 30.3 8 Este 19 Este 0 -- -- 39
2020-09-05 13:00:00 28.8 9 Este 24 Sudoeste 0 -- -- 43
2020-09-05 12:00:00 26.8 6 Nordeste 15 Sudeste 0 -- -- 46
2020-09-05 11:00:00 24.6 3 Este 8 Nordeste 0 -- -- 52
2020-09-05 10:00:00 20.9 3 Sudeste 5 Este 0 -- -- 62
2020-09-05 09:00:00 16.9 2 Este 4 Este 0 -- -- 76
2020-09-05 08:00:00 12.2 0 Calma 4 Noroeste 0 -- -- 92
2020-09-05 07:00:00 12.3 0 Calma 2 Nordeste 0 -- -- 91
2020-09-05 06:00:00 12.6 0 Calma 2 Noroeste 0 -- -- 89
2020-09-05 05:00:00 13.2 0 Calma 2 Noroeste 0 -- -- 88
2020-09-05 04:00:00 13.8 0 Calma 3 Noroeste 0 -- -- 86
2020-09-05 03:00:00 14.4 0 Calma 4 Oeste 0 -- -- 85
2020-09-05 02:00:00 15.3 0 Calma 3 Sur 0 -- -- 81
2020-09-05 01:00:00 16.2 0 Calma 4 Noroeste 0 -- -- 77
2020-09-05 00:00:00 17.5 0 Calma 3 Sudoeste 0 -- -- 75
2020-09-04 23:00:00 19 3 Oeste 8 Noroeste 0 -- -- 76
2020-09-04 22:00:00 20.4 4 Oeste 10 Sudeste 0 -- -- 72
2020-09-04 21:00:00 22 6 Sur 17 Sudeste 0 -- -- 66
2020-09-04 20:00:00 24.6 13 Sudeste 20 Sur 0 -- -- 57
2020-09-04 19:00:00 27.3 14 Sur 27 Sur 0 -- -- 47
2020-09-04 18:00:00 28.8 15 Sudeste 28 Este 0 -- -- 44
2020-09-04 17:00:00 29.6 18 Sudeste 33 Sudeste 0 -- -- 44
2020-09-04 16:00:00 30.6 18 Sudeste 29 Sudeste 0 -- -- 41
2020-09-04 15:00:00 30.9 14 Sudeste 28 Sudeste 0 -- -- 39
2020-09-04 14:00:00 30.9 17 Sudeste 31 Sudeste 0 -- -- 38
2020-09-04 13:00:00 29.6 16 Sudeste 26 Sudeste 0 -- -- 37
2020-09-04 12:00:00 27.9 12 Sudeste 23 Sudeste 0 -- -- 43
2020-09-04 11:00:00 24.7 6 Este 13 Este 0 -- -- 56
2020-09-04 10:00:00 20.8 2 Norte 6 Norte 0 -- -- 62
2020-09-04 09:00:00 16.7 0 Calma 3 Sudeste 0 -- -- 81
2020-09-04 08:00:00 12.2 0 Calma 3 Oeste 0 -- -- 94
2020-09-04 07:00:00 12.3 0 Calma 5 Sudoeste 0 -- -- 92
2020-09-04 06:00:00 12.8 0 Calma 5 Noroeste 0 -- -- 91
2020-09-04 05:00:00 13.5 0 Calma 3 Noroeste 0 -- -- 92
2020-09-04 04:00:00 14.1 0 Calma 5 Sudoeste 0 -- -- 90
2020-09-04 03:00:00 14.9 0 Calma 3 Noroeste 0 -- -- 89
2020-09-04 02:00:00 15.7 0 Calma 4 Noroeste 0 -- -- 87
2020-09-04 01:00:00 16.5 0 Calma 3 Sur 0 -- -- 85
2020-09-04 00:00:00 17.7 2 Oeste 9 Noroeste 0 -- -- 82
2020-09-03 23:00:00 19 4 Noroeste 7 Noroeste 0 -- -- 77
2020-09-03 22:00:00 20.5 0 Calma 14 Sur 0 -- -- 75
2020-09-03 21:00:00 21.9 7 Sur 19 Sudeste 0 -- -- 71
2020-09-03 20:00:00 24.3 11 Sur 24 Sudeste 0 -- -- 56
2020-09-03 19:00:00 26.8 13 Sur 26 Sur 0 -- -- 47
2020-09-03 18:00:00 28.3 16 Sur 30 Sudeste 0 -- -- 44
2020-09-03 17:00:00 29.4 19 Sudeste 33 Sur 0 -- -- 44
2020-09-03 16:00:00 30.4 19 Sudeste 28 Sudeste 0 -- -- 46
2020-09-03 15:00:00 30 17 Sur 30 Sur 0 -- -- 46
2020-09-03 14:00:00 31.1 17 Sudeste 28 Sur 0 -- -- 44
2020-09-03 13:00:00 28.4 11 Este 23 Sudeste 0 -- -- 46
2020-09-03 12:00:00 27.4 5 Sudoeste 15 Sur 0 -- -- 49
2020-09-03 11:00:00 24.6 4 Nordeste 10 Sudeste 0 -- -- 49
2020-09-03 10:00:00 20.7 2 Este 6 Sudeste 0 -- -- 57
2020-09-03 09:00:00 16.5 0 Calma 4 Este 0 -- -- 76
2020-09-03 08:00:00 12.1 0 Calma 3 Noroeste 0 -- -- 93
2020-09-03 07:00:00 12.2 0 Calma 4 Sur 0 -- -- 92
2020-09-03 06:00:00 12.8 3 Oeste 7 Noroeste 0 -- -- 92
2020-09-03 05:00:00 13.3 2 Sudeste 6 Noroeste 0 -- -- 92
2020-09-03 04:00:00 14 0 Calma 6 Noroeste 0 -- -- 90
2020-09-03 03:00:00 14.5 0 Calma 4 Sudeste 0 -- -- 91
2020-09-03 02:00:00 15.2 3 Oeste 8 Sudoeste 0 -- -- 90
2020-09-03 01:00:00 15.9 3 Sur 10 Noroeste 0 -- -- 85
2020-09-03 00:00:00 16.7 5 Oeste 6 Sudoeste 0 -- -- 86
2020-09-02 23:00:00 18.2 2 Noroeste 9 Noroeste 0 -- -- 81
2020-09-02 22:00:00 19.4 2 Oeste 7 Sur 0 -- -- 78
2020-09-02 21:00:00 20.8 5 Sur 13 Sudeste 0 -- -- 74
2020-09-02 20:00:00 22.4 8 Sudeste 18 Este 0 -- -- 65
2020-09-02 19:00:00 23.5 10 Este 24 Este 0 -- -- 59
2020-09-02 18:00:00 24.7 14 Este 21 Sudeste 0 -- -- 58
2020-09-02 17:00:00 25.2 11 Sudeste 24 Este 0 -- -- 55
2020-09-02 16:00:00 25 13 Este 32 Este 0 -- -- 55
2020-09-02 15:00:00 26.9 19 Este 32 Este 0 -- -- 48
2020-09-02 14:00:00 28.7 15 Sudeste 31 Sudeste 0 -- -- 34
2020-09-02 13:00:00 27.5 13 Sudeste 27 Sudeste 0 -- -- 31
2020-09-02 12:00:00 26 7 Sudeste 17 Este 0 -- -- 34
2020-09-02 11:00:00 23.9 7 Nordeste 14 Este 0 -- -- 39
2020-09-02 10:00:00 20.4 3 Sudeste 8 Este 0 -- -- 52
2020-09-02 09:00:00 14.6 0 Calma 6 Noroeste 0 -- -- 77
2020-09-02 08:00:00 10.4 0 Calma 7 Noroeste 0 -- -- 88
2020-09-02 07:00:00 11 0 Calma 6 Noroeste 0 -- -- 88
2020-09-02 06:00:00 11.7 0 Calma 6 Sudoeste 0 -- -- 92
2020-09-02 05:00:00 12.6 0 Calma 9 Noroeste 0 -- -- 89
2020-09-02 04:00:00 13.4 0 Calma 6 Sudoeste 0 -- -- 92
2020-09-02 03:00:00 13.5 4 Sur 7 Noroeste 0 -- -- 91
2020-09-02 02:00:00 14.5 2 Este 5 Oeste 0 -- -- 90
2020-09-02 01:00:00 16 0 Calma 5 Sur 0 -- -- 90
2020-09-02 00:00:00 16.8 3 Sudoeste 6 Noroeste 0 -- -- 89
2020-09-01 23:00:00 18 4 Noroeste 10 Noroeste 0 -- -- 84
2020-09-01 22:00:00 19.3 3 Norte 8 Sudeste 0.8 -- -- 88
2020-09-01 21:00:00 21.1 3 Nordeste 9 Sur 0 -- -- 69
2020-09-01 20:00:00 21.9 6 Sur 15 Sudeste 0 -- -- 65
2020-09-01 19:00:00 23.4 10 Sudeste 23 Sur 0 -- -- 59
2020-09-01 18:00:00 24.2 11 Sur 23 Sudeste 0 -- -- 56
2020-09-01 17:00:00 25.9 13 Sudeste 23 Sudeste 0 -- -- 50
2020-09-01 16:00:00 27.3 13 Sudeste 23 Sudeste 0 -- -- 43
2020-09-01 15:00:00 27.3 12 Este 27 Este 0 -- -- 39
2020-09-01 14:00:00 27 6 Este 19 Sudeste 0 -- -- 43
2020-09-01 13:00:00 25.8 6 Sudeste 15 Sudeste 0 -- -- 47
2020-09-01 12:00:00 23.6 5 Sudeste 10 Este 0 -- -- 52
2020-09-01 11:00:00 20.4 0 Calma 6 Sur 0 -- -- 53
2020-09-01 10:00:00 17.5 4 Sudoeste 6 Sudoeste 0 -- -- 65
2020-09-01 09:00:00 14.5 0 Calma 5 Noroeste 0 -- -- 77
2020-09-01 08:00:00 11.6 0 Calma 5 Noroeste 0 -- -- 88
2020-09-01 07:00:00 11.1 0 Calma 7 Noroeste 0 -- -- 87
2020-09-01 06:00:00 11.5 0 Calma 4 Noroeste 0 -- -- 87
2020-09-01 05:00:00 11.7 0 Calma 3 Oeste 0 -- -- 87
2020-09-01 04:00:00 12.7 0 Calma 3 Sudeste 0 -- -- 85
2020-09-01 03:00:00 13.7 0 Calma 3 Noroeste 0 -- -- 83
2020-09-01 02:00:00 14.8 0 Calma 4 Oeste 0 -- -- 79
2020-09-01 01:00:00 16.2 4 Noroeste 6 Noroeste 0 -- -- 76
2020-09-01 00:00:00 17.4 2 Sudoeste 5 Noroeste 0 -- -- 70
2020-08-31 23:00:00 18.2 2 Noroeste 6 Nordeste 0 -- -- 68
2020-08-31 22:00:00 19.4 4 Sur 11 Sudeste 0 -- -- 63
2020-08-31 21:00:00 20.4 5 Sudeste 21 Sur 0 -- -- 58
2020-08-31 20:00:00 22.6 12 Sur 21 Sur 0 -- -- 48
2020-08-31 19:00:00 23.9 13 Sur 25 Sudeste 0 -- -- 44
2020-08-31 18:00:00 26.9 16 Sudeste 25 Sudeste 0 -- -- 37
2020-08-31 17:00:00 28.1 15 Sudeste 28 Sur 0 -- -- 34
2020-08-31 16:00:00 28.8 12 Sur 28 Sudeste 0 -- -- 30
2020-08-31 15:00:00 28.3 14 Sudeste 31 Sudeste 0 -- -- 28
2020-08-31 14:00:00 26.9 12 Este 25 Sudeste 0 -- -- 28
2020-08-31 13:00:00 26.1 7 Nordeste 16 Sudeste 0 -- -- 27
2020-08-31 12:00:00 25.1 9 Este 21 Este 0 -- -- 30
2020-08-31 11:00:00 22.6 5 Nordeste 15 Norte 0 -- -- 33
2020-08-31 10:00:00 20.2 8 Norte 16 Nordeste 0 -- -- 38
2020-08-31 09:00:00 16.8 3 Sur 12 Noroeste 0 -- -- 48
2020-08-31 08:00:00 13.7 9 Norte 16 Norte 0 -- -- 55
2020-08-31 07:00:00 13.1 8 Norte 17 Norte 0 -- -- 57
2020-08-31 06:00:00 14.8 9 Noroeste 23 Noroeste 0 -- -- 51
2020-08-31 05:00:00 15.5 8 Noroeste 21 Este 0 -- -- 49
2020-08-31 04:00:00 13.4 5 Sudeste 10 Sudeste 0 -- -- 58
2020-08-31 03:00:00 12.9 3 Este 9 Sudoeste 0 -- -- 60
2020-08-31 02:00:00 14.2 3 Noroeste 13 Sudoeste 0 -- -- 57
2020-08-31 01:00:00 16.3 3 Sur 13 Noroeste 0 -- -- 54
2020-08-31 00:00:00 16.8 6 Oeste 27 Noroeste 0 -- -- 52
2020-08-30 23:00:00 15.4 0 Calma 9 Noroeste 0 -- -- 68
2020-08-30 22:00:00 17.1 6 Noroeste 10 Noroeste 0 -- -- 64
2020-08-30 21:00:00 19.4 4 Este 13 Sudeste 0 -- -- 57
2020-08-30 20:00:00 21.1 8 Sudeste 20 Este 0 -- -- 51
2020-08-30 19:00:00 22.9 12 Este 26 Este 0 -- -- 45
2020-08-30 18:00:00 24.1 14 Sudeste 27 Este 0 -- -- 39
2020-08-30 17:00:00 24.2 12 Nordeste 26 Norte 0 -- -- 31
2020-08-30 16:00:00 25.2 12 Norte 26 Norte 0 -- -- 30
2020-08-30 15:00:00 24.1 16 Norte 31 Norte 0 -- -- 32
2020-08-30 14:00:00 24.3 16 Norte 36 Norte 0 -- -- 31
2020-08-30 13:00:00 22.7 22 Norte 39 Noroeste 0 -- -- 33
2020-08-30 12:00:00 22.1 14 Noroeste 32 Norte 0 -- -- 32
2020-08-30 11:00:00 20.7 21 Noroeste 36 Noroeste 0 -- -- 35
2020-08-30 10:00:00 19.7 11 Noroeste 26 Noroeste 0 -- -- 35
2020-08-30 09:00:00 17.4 6 Noroeste 20 Norte 0 -- -- 39
2020-08-30 08:00:00 14.5 4 Noroeste 27 Oeste 0 -- -- 49
2020-08-30 07:00:00 14.5 6 Oeste 20 Sur 0 -- -- 53
2020-08-30 06:00:00 15 4 Oeste 30 Sur 0 -- -- 54
2020-08-30 05:00:00 15.3 13 Sudeste 27 Sudeste 0 -- -- 56
2020-08-30 04:00:00 16.2 8 Este 32 Norte 0 -- -- 53
2020-08-30 03:00:00 16.4 11 Noroeste 34 Noroeste 0 -- -- 54
2020-08-30 02:00:00 16.9 16 Norte 42 Noroeste 0 -- -- 54
2020-08-30 01:00:00 16.7 11 Noroeste 20 Nordeste 0 -- -- 57
2020-08-30 00:00:00 16.8 2 Sudeste 20 Noroeste 0 -- -- 58
2020-08-29 23:00:00 17.3 3 Sudoeste 21 Oeste 0 -- -- 59
2020-08-29 22:00:00 18.4 13 Noroeste 28 Noroeste 0 -- -- 55
2020-08-29 21:00:00 17.5 3 Noroeste 8 Sur 0 -- -- 81
2020-08-29 20:00:00 19.9 3 Sudeste 9 Este 0 -- -- 71
2020-08-29 19:00:00 21.4 0 Calma 13 Sudoeste 0 -- -- 53
2020-08-29 18:00:00 17.7 9 Sudoeste 24 Oeste 1.4 -- -- 86
2020-08-29 17:00:00 22.2 8 Norte 21 Este 0 -- -- 52
2020-08-29 16:00:00 22.4 11 Nordeste 22 Nordeste 0 -- -- 45
2020-08-29 15:00:00 20.9 8 Norte 31 Noroeste 0 -- -- 53
2020-08-29 14:00:00 21.4 13 Norte 31 Noroeste 0 -- -- 46
2020-08-29 13:00:00 21.9 15 Norte 31 Noroeste 0 -- -- 45
2020-08-29 12:00:00 21.9 15 Norte 31 Noroeste 0 -- -- 44
2020-08-29 11:00:00 21.3 14 Norte 28 Norte 0 -- -- 42
2020-08-29 10:00:00 20.1 11 Norte 29 Nordeste 0 -- -- 49
2020-08-29 09:00:00 19.1 8 Nordeste 18 Noroeste 0 -- -- 54
2020-08-29 08:00:00 18.7 8 Norte 28 Noroeste 0 -- -- 57
2020-08-29 07:00:00 18.6 6 Norte 31 Noroeste 0 -- -- 60
2020-08-29 06:00:00 18.6 15 Noroeste 32 Noroeste 0 -- -- 62
2020-08-29 05:00:00 18.7 13 Noroeste 28 Norte 0 -- -- 64
2020-08-29 04:00:00 18.7 9 Norte 25 Nordeste 0 -- -- 66
2020-08-29 03:00:00 19.3 9 Norte 19 Nordeste 0 -- -- 67
2020-08-29 02:00:00 19.9 9 Norte 17 Norte 0 -- -- 70
2020-08-29 01:00:00 19.9 8 Norte 18 Norte 0 -- -- 72
2020-08-29 00:00:00 21 10 Norte 23 Norte 0 -- -- 73
2020-08-28 23:00:00 20.8 4 Nordeste 8 Nordeste 0 -- -- 93
2020-08-28 22:00:00 20.8 4 Sudoeste 8 Sudoeste 0 -- -- 93
2020-08-28 21:00:00 20.9 3 Noroeste 10 Sudoeste 0 -- -- 91
2020-08-28 20:00:00 21.4 4 Nordeste 14 Norte 0.2 -- -- 88
2020-08-28 19:00:00 22.1 6 Nordeste 27 Noroeste 0.6 -- -- 83
2020-08-28 18:00:00 23.1 11 Norte 52 Norte 0.8 -- -- 75
2020-08-28 17:00:00 29.1 13 Este 33 Este 0 -- -- 62
2020-08-28 16:00:00 30.9 18 Este 33 Sudeste 0 -- -- 58
2020-08-28 15:00:00 34.7 13 Sudeste 27 Sudeste 0 -- -- 39
2020-08-28 14:00:00 32.7 12 Este 30 Sudeste 0 -- -- 45
2020-08-28 13:00:00 30.6 7 Este 24 Nordeste 0 -- -- 52
2020-08-28 12:00:00 29.6 6 Sudeste 12 Sudeste 0 -- -- 57
2020-08-28 11:00:00 27.6 0 Calma 9 Este 0 -- -- 65
2020-08-28 10:00:00 24.8 0 Calma 6 Este 0 -- -- 71
2020-08-28 09:00:00 22.8 0 Calma 3 Nordeste 0 -- -- 76
2020-08-28 08:00:00 21.8 0 Calma 5 Este 0 -- -- 82
2020-08-28 07:00:00 22.5 0 Calma 4 Noroeste 0 -- -- 85
2020-08-28 06:00:00 22.5 0 Calma 3 Sudoeste 0 -- -- 89
2020-08-28 05:00:00 22.3 2 Sudeste 4 Oeste 0 -- -- 89
2020-08-28 04:00:00 22.3 0 Calma 4 Nordeste 0 -- -- 91
2020-08-28 03:00:00 21.7 0 Calma 5 Noroeste 0 -- -- 90
2020-08-28 02:00:00 22 0 Calma 4 Este 0 -- -- 89
2020-08-28 01:00:00 22.7 4 Noroeste 8 Oeste 0 -- -- 89
2020-08-28 00:00:00 23.4 5 Sur 10 Noroeste 0 -- -- 86
2020-08-27 23:00:00 24.5 3 Noroeste 5 Sudoeste 0 -- -- 84
2020-08-27 22:00:00 25.5 4 Sudoeste 9 Sur 0 -- -- 82
2020-08-27 21:00:00 26.6 6 Sudeste 19 Este 0 -- -- 78
2020-08-27 20:00:00 28.7 12 Este 20 Este 0 -- -- 70
2020-08-27 19:00:00 30.2 13 Sudeste 21 Este 0 -- -- 63
2020-08-27 18:00:00 32 14 Este 25 Este 0 -- -- 57
2020-08-27 17:00:00 32.1 16 Sudeste 29 Sudeste 0 -- -- 56
2020-08-27 16:00:00 32.5 12 Sudeste 27 Este 0 -- -- 55
2020-08-27 15:00:00 33.5 14 Este 28 Este 0 -- -- 51
2020-08-27 14:00:00 33.8 11 Este 21 Este 0 -- -- 47
2020-08-27 13:00:00 33.1 6 Sudeste 19 Sudeste 0 -- -- 44
2020-08-27 12:00:00 31.2 7 Sur 17 Nordeste 0 -- -- 48
2020-08-27 11:00:00 28.7 4 Sudeste 9 Este 0 -- -- 56
2020-08-27 10:00:00 25.6 2 Nordeste 5 Nordeste 0 -- -- 65
2020-08-27 09:00:00 21.7 3 Sudeste 5 Sudeste 0 -- -- 74
2020-08-27 08:00:00 18 0 Calma 4 Sudoeste 0 -- -- 88
2020-08-27 07:00:00 17.8 0 Calma 3 Sudeste 0 -- -- 86
2020-08-27 06:00:00 18.5 0 Calma 2 Noroeste 0 -- -- 86
2020-08-27 05:00:00 19 0 Calma 4 Noroeste 0 -- -- 86
2020-08-27 04:00:00 19.4 3 Sudoeste 6 Norte 0 -- -- 85
2020-08-27 03:00:00 20.2 2 Oeste 6 Norte 0 -- -- 86
2020-08-27 02:00:00 21 3 Norte 5 Noroeste 0 -- -- 86
2020-08-27 01:00:00 21.8 0 Calma 3 Noroeste 0 -- -- 84
2020-08-27 00:00:00 22.7 0 Calma 5 Noroeste 0 -- -- 80
2020-08-26 23:00:00 23.9 2 Norte -- -- 0 -- -- 79
2020-08-26 22:00:00 25.2 6 Noroeste 8 Noroeste 0 -- -- 75
2020-08-26 21:00:00 26.8 5 Sudeste 10 Sudeste 0 -- -- 69
2020-08-26 20:00:00 28.3 8 Sur 20 Sudeste 0 -- -- 67
2020-08-26 19:00:00 30.1 11 Este 26 Sudeste 0 -- -- 63
2020-08-26 18:00:00 31.4 16 Este 27 Sudeste 0 -- -- 60
2020-08-26 17:00:00 31.7 11 Este 28 Sudeste 0 -- -- 60
2020-08-26 16:00:00 33.4 17 Sudeste 30 Sudeste 0 -- -- 56
2020-08-26 15:00:00 34.8 18 Este 29 Este 0 -- -- 49
2020-08-26 14:00:00 34.4 12 Sudeste 26 Este 0 -- -- 44
2020-08-26 13:00:00 31.9 8 Este 17 Este 0 -- -- 51
2020-08-26 12:00:00 30 8 Este 12 Este 0 -- -- 57
2020-08-26 11:00:00 28.2 4 Nordeste 10 Sudeste 0 -- -- 62
2020-08-26 10:00:00 25.1 3 Este 6 Sudeste 0 -- -- 63
2020-08-26 09:00:00 21 3 Sur 5 Sur 0 -- -- 72
2020-08-26 08:00:00 17 0 Calma 6 Noroeste 0 -- -- 87
2020-08-26 07:00:00 16.9 2 Nordeste 7 Noroeste 0 -- -- 86
2020-08-26 06:00:00 17.1 3 Sur 6 Noroeste 0 -- -- 84
2020-08-26 05:00:00 17.7 0 Calma 3 Oeste 0 -- -- 81
2020-08-26 04:00:00 18.4 0 Calma 4 Noroeste 0 -- -- 82
2020-08-26 03:00:00 19.3 2 Noroeste 4 Noroeste 0 -- -- 80
2020-08-26 02:00:00 20.2 0 Calma 5 Noroeste 0 -- -- 80
2020-08-26 01:00:00 21.3 2 Oeste 4 Noroeste 0 -- -- 84
2020-08-26 00:00:00 22.4 3 Noroeste 7 Noroeste 0 -- -- 81
2020-08-25 23:00:00 23.7 5 Noroeste 9 Noroeste 0 -- -- 77
2020-08-25 22:00:00 25.2 4 Noroeste 5 Noroeste 0 -- -- 74
2020-08-25 21:00:00 27.2 0 Calma 15 Sudeste 0 -- -- 69
2020-08-25 20:00:00 29.5 8 Sudeste 20 Este 0 -- -- 61
2020-08-25 19:00:00 32.1 10 Sudeste 22 Sur 0 -- -- 52
2020-08-25 18:00:00 33.3 10 Sudeste 43 Sudeste 0 -- -- 49
2020-08-25 17:00:00 34.2 10 Sudeste 30 Este 0 -- -- 48
2020-08-25 16:00:00 34.9 10 Sudeste 28 Sur 0 -- -- 47
2020-08-25 15:00:00 34.3 14 Sudeste 24 Sudeste 0 -- -- 46
2020-08-25 14:00:00 35.1 13 Sur 27 Sudeste 0 -- -- 44
2020-08-25 13:00:00 33.8 9 Sudeste 21 Sudeste 0 -- -- 46
2020-08-25 12:00:00 31.8 8 Sur 16 Sudeste 0 -- -- 51
2020-08-25 11:00:00 29 5 Sudeste 9 Sudeste 0 -- -- 60
2020-08-25 10:00:00 25.2 0 Calma 6 Sudeste 0 -- -- 73
2020-08-25 09:00:00 22.2 0 Calma 4 Sudoeste 0 -- -- 85
2020-08-25 08:00:00 19.5 2 Sudoeste 4 Oeste 0 -- -- 90
2020-08-25 07:00:00 19.5 0 Calma 6 Oeste 0 -- -- 92
2020-08-25 06:00:00 19.3 3 Oeste 5 Oeste 0 -- -- 92
2020-08-25 05:00:00 19.8 3 Oeste 5 Noroeste 0 -- -- 91
2020-08-25 04:00:00 20.8 3 Noroeste 7 Noroeste 0 -- -- 90
2020-08-25 03:00:00 21.9 6 Noroeste 12 Sudeste 0 -- -- 88
2020-08-25 02:00:00 22.3 4 Sudoeste 10 Sur 0 -- -- 89
2020-08-25 01:00:00 22.5 3 Noroeste 6 Este 0 -- -- 88
2020-08-25 00:00:00 23.1 2 Sur 12 Sudeste 0 -- -- 86
2020-08-24 23:00:00 23.7 6 Sudeste 12 Sudeste 0 -- -- 85
2020-08-24 22:00:00 24.1 5 Sur 13 Sudeste 0 -- -- 81
2020-08-24 21:00:00 24.6 8 Sudeste 17 Sudeste 0 -- -- 78
2020-08-24 20:00:00 26 11 Sudeste 16 Sudeste 0 -- -- 72
2020-08-24 19:00:00 26.8 9 Sudeste 19 Este 0 -- -- 68
2020-08-24 18:00:00 26.9 11 Sudeste 28 Sudeste 0 -- -- 65
2020-08-24 17:00:00 28 17 Este 32 Sudeste 0 -- -- 60
2020-08-24 16:00:00 32.6 15 Sur 30 Sudeste 0 -- -- 46
2020-08-24 15:00:00 31.3 13 Sudeste 30 Sudeste 0 -- -- 47
2020-08-24 14:00:00 27.3 17 Sudeste 33 Sudeste 0 -- -- 52
2020-08-24 13:00:00 28.1 16 Sudeste 24 Sudeste 0 -- -- 51
2020-08-24 12:00:00 28.6 13 Sudeste 20 Sudeste 0 -- -- 43
2020-08-24 11:00:00 25.7 3 Sur 6 Sur 0 -- -- 43
2020-08-24 10:00:00 23.3 4 Sur 6 Sur 0 -- -- 51
2020-08-24 09:00:00 21.2 0 Calma 4 Nordeste 0 -- -- 62
2020-08-24 08:00:00 16.5 2 Oeste 4 Sudoeste 0 -- -- 79
2020-08-24 07:00:00 15.8 2 Nordeste 5 Oeste 0 -- -- 81
2020-08-24 06:00:00 16.4 0 Calma 5 Sudoeste 0 -- -- 79
2020-08-24 05:00:00 17 4 Sudoeste 6 Sudoeste 0 -- -- 81
2020-08-24 04:00:00 17.8 4 Sur 8 Noroeste 0 -- -- 80
2020-08-24 03:00:00 19.2 2 Noroeste 5 Sudoeste 0 -- -- 85
2020-08-24 02:00:00 20.4 2 Sudeste 6 Noroeste 0 -- -- 84
2020-08-24 01:00:00 21.4 0 Calma 9 Noroeste 0 -- -- 83
2020-08-24 00:00:00 22.1 7 Noroeste 10 Noroeste 0 -- -- 81
2020-08-23 23:00:00 23 0 Calma 5 Este 0 -- -- 78
2020-08-23 22:00:00 23.5 0 Calma 7 Noroeste 0 -- -- 77
2020-08-23 21:00:00 24 2 Sur 11 Sur 0 -- -- 74
2020-08-23 20:00:00 25 6 Sudeste 13 Este 0 -- -- 71
2020-08-23 19:00:00 25.2 5 Sudeste 21 Sudeste 0 -- -- 71
2020-08-23 18:00:00 26.4 11 Sudeste 23 Sudeste 0 -- -- 64
2020-08-23 17:00:00 27.5 9 Sudeste 24 Este 0 -- -- 58
2020-08-23 16:00:00 26.5 12 Este 21 Este 0 -- -- 59
2020-08-23 15:00:00 29.9 13 Sudeste 25 Sudeste 0 -- -- 48
2020-08-23 14:00:00 27 4 Sudoeste 10 Noroeste 0 -- -- 52
2020-08-23 13:00:00 24.9 2 Norte 12 Sur 0 -- -- 53
2020-08-23 12:00:00 24.7 9 Sur 13 Sur 0 -- -- 55
2020-08-23 11:00:00 23.9 9 Este 14 Este 0 -- -- 55
2020-08-23 10:00:00 23.6 4 Sudeste 6 Sudeste 0 -- -- 55
2020-08-23 09:00:00 21.7 2 Sur 5 Sudoeste 0 -- -- 63
2020-08-23 08:00:00 19.8 3 Norte 8 Nordeste 0 -- -- 70
2020-08-23 07:00:00 19.2 3 Sudoeste 4 Oeste 0 -- -- 74
2020-08-23 06:00:00 20.1 0 Calma 6 Noroeste 0 -- -- 67
2020-08-23 05:00:00 21.2 2 Sudeste 7 Norte 0 -- -- 73
2020-08-23 04:00:00 21.7 0 Calma 7 Nordeste 0 -- -- 74
2020-08-23 03:00:00 22.5 0 Calma 6 Sur 0 -- -- 81
2020-08-23 02:00:00 22.7 4 Sudoeste 10 Sur 0 -- -- 80
2020-08-23 01:00:00 22.9 3 Oeste 6 Noroeste 0 -- -- 80
2020-08-23 00:00:00 23.9 2 Sur 5 Este 0 -- -- 75
2020-08-22 23:00:00 24.3 3 Oeste 6 Noroeste 0 -- -- 74
2020-08-22 22:00:00 24.9 3 Sudoeste 6 Oeste 0 -- -- 72
2020-08-22 21:00:00 26.2 2 Sudeste 8 Sur 0 -- -- 69
2020-08-22 20:00:00 27.2 3 Sur 13 Sudeste 0 -- -- 66
2020-08-22 19:00:00 27.5 7 Este 20 Sudeste 0 -- -- 66
2020-08-22 18:00:00 28.7 9 Sudeste 25 Este 0 -- -- 59
2020-08-22 17:00:00 30.6 13 Sudeste 27 Sudeste 0 -- -- 51
2020-08-22 16:00:00 31.6 15 Sudeste 28 Sudeste 0 -- -- 46
2020-08-22 15:00:00 32.4 14 Sudeste 30 Sur 0 -- -- 47
2020-08-22 14:00:00 33.6 13 Sudeste 24 Sur 0 -- -- 46
2020-08-22 13:00:00 33 11 Sudeste 22 Sudeste 0 -- -- 49
2020-08-22 12:00:00 30.7 7 Este 17 Sur 0 -- -- 51
2020-08-22 11:00:00 29.5 9 Sudeste 15 Sur 0 -- -- 58
2020-08-22 10:00:00 26.9 4 Sudeste 8 Sur 0 -- -- 62
2020-08-22 09:00:00 22.8 0 Calma 4 Nordeste 0 -- -- 64
2020-08-22 08:00:00 17.5 0 Calma 5 Sudeste 0 -- -- 76
2020-08-22 07:00:00 16.7 0 Calma 5 Sur 0 -- -- 81
2020-08-22 06:00:00 17.3 0 Calma 6 Sudoeste 0 -- -- 86
2020-08-22 05:00:00 18.1 0 Calma 5 Sur 0 -- -- 88
2020-08-22 04:00:00 18.7 0 Calma 6 Sudoeste 0 -- -- 89
2020-08-22 03:00:00 19.6 4 Sudoeste 6 Sudoeste 0 -- -- 88
2020-08-22 02:00:00 20.7 4 Noroeste 6 Noroeste 0 -- -- 88
2020-08-22 01:00:00 21.8 5 Oeste 10 Noroeste 0 -- -- 83
2020-08-22 00:00:00 23 5 Oeste 9 Noroeste 0 -- -- 79
2020-08-21 23:00:00 24.6 0 Calma 8 Noroeste 0 -- -- 78
2020-08-21 22:00:00 26.1 6 Noroeste 9 Noroeste 0 -- -- 73
2020-08-21 21:00:00 28.2 3 Sur 11 Sudeste 0 -- -- 66
2020-08-21 20:00:00 30.4 10 Sudeste 19 Sudeste 0 -- -- 60
2020-08-21 19:00:00 32.6 12 Sudeste 23 Sudeste 0 -- -- 55
2020-08-21 18:00:00 34.3 13 Sudeste 28 Sudeste 0 -- -- 50
2020-08-21 17:00:00 35.5 15 Sudeste 25 Sudeste 0 -- -- 46
2020-08-21 16:00:00 36.1 15 Sudeste 25 Sur 0 -- -- 44
2020-08-21 15:00:00 36.1 14 Sur 25 Sudeste 0 -- -- 42
2020-08-21 14:00:00 35.3 14 Sur 26 Sudeste 0 -- -- 43
2020-08-21 13:00:00 32.1 7 Este 25 Este 0 -- -- 45
2020-08-21 12:00:00 31.5 10 Sudeste 19 Sudeste 0 -- -- 48
2020-08-21 11:00:00 29.3 4 Este 9 Sudeste 0 -- -- 50
2020-08-21 10:00:00 25.3 2 Este 6 Nordeste 0 -- -- 56
2020-08-21 09:00:00 21.4 0 Calma 5 Este 0 -- -- 67
2020-08-21 08:00:00 17.6 0 Calma 5 Noroeste 0 -- -- 83
2020-08-21 07:00:00 17.1 0 Calma 4 Oeste 0 -- -- 84
2020-08-21 06:00:00 16.8 0 Calma 7 Sudoeste 0 -- -- 85
2020-08-21 05:00:00 17.4 3 Noroeste 4 Sudeste 0 -- -- 86
2020-08-21 04:00:00 18 3 Norte 5 Noroeste 0 -- -- 84
2020-08-21 03:00:00 18.7 0 Calma 3 Noroeste 0 -- -- 81
2020-08-21 02:00:00 19.6 0 Calma 4 Noroeste 0 -- -- 79
2020-08-21 01:00:00 20.4 3 Oeste 5 Norte 0 -- -- 78
2020-08-21 00:00:00 21.6 3 Nordeste 6 Oeste 0 -- -- 75
2020-08-20 23:00:00 23.1 4 Sudoeste 9 Sudoeste 0 -- -- 75
2020-08-20 22:00:00 24.9 4 Sudoeste 14 Sudeste 0 -- -- 66
2020-08-20 21:00:00 27 8 Sudeste 19 Sudeste 0 -- -- 59
2020-08-20 20:00:00 30.3 14 Sudeste 21 Sudeste 0 -- -- 49
2020-08-20 19:00:00 33.4 10 Sur 22 Sur 0 -- -- 30
2020-08-20 18:00:00 34.6 14 Sur 28 Sur 0 -- -- 28
2020-08-20 17:00:00 35.5 13 Sudeste 27 Sudeste 0 -- -- 28
2020-08-20 16:00:00 36 17 Sur 29 Sur 0 -- -- 26
2020-08-20 15:00:00 35.9 15 Sur 27 Sur 0 -- -- 31
2020-08-20 14:00:00 35.4 16 Sur 27 Sur 0 -- -- 35
2020-08-20 13:00:00 33.4 14 Sudeste 28 Sudeste 0 -- -- 36
2020-08-20 12:00:00 30.1 10 Este 21 Este 0 -- -- 45
2020-08-20 11:00:00 28.7 9 Este 15 Este 0 -- -- 45
2020-08-20 10:00:00 25.1 0 Calma 5 Este 0 -- -- 43
2020-08-20 09:00:00 21 0 Calma 4 Nordeste 0 -- -- 55
2020-08-20 08:00:00 15.6 0 Calma 3 Oeste 0 -- -- 73
2020-08-20 07:00:00 15 0 Calma 4 Noroeste 0 -- -- 71
2020-08-20 06:00:00 15.4 0 Calma 3 Noroeste 0 -- -- 73
2020-08-20 05:00:00 16.1 0 Calma 3 Oeste 0 -- -- 73
2020-08-20 04:00:00 16.7 0 Calma 6 Oeste 0 -- -- 72
2020-08-20 03:00:00 17.5 2 Sudeste 4 Noroeste 0 -- -- 72
2020-08-20 02:00:00 18.3 3 Sudoeste 4 Sudoeste 0 -- -- 72
2020-08-20 01:00:00 19.3 3 Noroeste 6 Oeste 0 -- -- 74
2020-08-20 00:00:00 20.9 0 Calma 4 Noroeste 0 -- -- 74
2020-08-19 23:00:00 22.8 0 Calma 7 Noroeste 0 -- -- 68
2020-08-19 22:00:00 24.4 5 Noroeste 9 Noroeste 0 -- -- 64
2020-08-19 21:00:00 26.7 0 Calma 14 Sudeste 0 -- -- 56
2020-08-19 20:00:00 28.7 10 Sudeste 22 Sudeste 0 -- -- 51
2020-08-19 19:00:00 30.4 16 Sur 27 Sudeste 0 -- -- 46
2020-08-19 18:00:00 32 15 Sudeste 30 Sudeste 0 -- -- 45
2020-08-19 17:00:00 34.7 18 Sur 34 Sur 0 -- -- 33
2020-08-19 16:00:00 36.1 21 Sur 34 Sur 0 -- -- 32
2020-08-19 15:00:00 35.8 22 Sur 36 Sudeste 0 -- -- 33
2020-08-19 14:00:00 35.6 24 Sudeste 38 Sudeste 0 -- -- 32
2020-08-19 13:00:00 34.4 17 Sudeste 30 Sudeste 0 -- -- 33
2020-08-19 12:00:00 33.4 12 Sudeste 22 Sudeste 0 -- -- 32
2020-08-19 11:00:00 29.9 6 Este 11 Nordeste 0 -- -- 39
2020-08-19 10:00:00 25.7 2 Sudeste 6 Sudeste 0 -- -- 49
2020-08-19 09:00:00 21.8 3 Sudeste 4 Sur 0 -- -- 61
2020-08-19 08:00:00 17 0 Calma 3 Norte 0 -- -- 81
2020-08-19 07:00:00 16.1 0 Calma 4 Noroeste 0 -- -- 83
2020-08-19 06:00:00 16.8 0 Calma 2 Nordeste 0 -- -- 81
2020-08-19 05:00:00 17.6 0 Calma 2 Norte 0 -- -- 81
2020-08-19 04:00:00 18.4 0 Calma 2 Oeste 0 -- -- 79
2020-08-19 03:00:00 19.3 0 Calma 5 Noroeste 0 -- -- 77
2020-08-19 02:00:00 19.7 3 Oeste 5 Oeste 0 -- -- 75
2020-08-19 01:00:00 20.6 0 Calma 3 Noroeste 0 -- -- 71
2020-08-19 00:00:00 21.7 3 Noroeste 5 Noroeste 0 -- -- 68